Time;durP1;ratioP1;P1;durP2;ratioP2;P2;SDS_P1;SDS_P2;PMS_P1;PMS_P2;Temp;Humidity;BMP_temperature;BMP_pressure;BME280_temperature;BME280_humidity;BME280_pressure;Samples;Min_cycle;Max_cycle;Signal;HPM_P1;HPM_P2
2021/09/10 00:01:35;;;;;;;30.73;28.90;;;20.40;72.40;;;;;;5044453;28;20533;-70
2021/09/10 00:04:04;;;;;;;30.70;28.80;;;20.40;72.70;;;;;;5034631;28;20462;-70
2021/09/10 00:06:31;;;;;;;30.47;28.60;;;20.30;73.00;;;;;;5047550;28;20988;-69
2021/09/10 00:08:59;;;;;;;30.93;28.80;;;20.30;73.20;;;;;;5042374;28;21000;-70
2021/09/10 00:11:26;;;;;;;31.43;29.20;;;20.20;73.50;;;;;;5045757;28;20995;-70
2021/09/10 00:13:53;;;;;;;31.60;29.40;;;20.20;73.50;;;;;;5044206;28;20494;-69
2021/09/10 00:16:20;;;;;;;31.70;29.80;;;20.20;73.60;;;;;;5046134;28;20469;-70
2021/09/10 00:18:47;;;;;;;31.47;29.67;;;20.10;73.60;;;;;;5039986;28;20997;-70
2021/09/10 00:21:16;;;;;;;31.73;29.83;;;20.10;73.80;;;;;;5045638;28;20462;-70
2021/09/10 00:23:43;;;;;;;30.90;29.00;;;20.00;74.10;;;;;;5045308;28;20455;-70
2021/09/10 00:26:10;;;;;;;31.20;29.30;;;20.00;74.30;;;;;;5038496;28;20464;-70
2021/09/10 00:28:37;;;;;;;31.40;29.40;;;20.00;74.30;;;;;;5037614;28;20585;-69
2021/09/10 00:31:04;;;;;;;30.43;28.60;;;20.00;74.10;;;;;;5034664;28;20463;-69
2021/09/10 00:33:31;;;;;;;30.00;28.30;;;20.00;74.30;;;;;;5045223;28;20806;-69
2021/09/10 00:35:58;;;;;;;30.73;28.73;;;20.00;74.50;;;;;;5040552;28;20550;-69
2021/09/10 00:38:26;;;;;;;31.40;29.60;;;20.00;74.60;;;;;;5046474;28;20566;-69
2021/09/10 00:40:53;;;;;;;30.17;28.27;;;19.90;74.80;;;;;;5044803;28;20486;-69
2021/09/10 00:43:20;;;;;;;31.43;29.50;;;20.00;74.70;;;;;;5043568;28;20474;-69
2021/09/10 00:45:48;;;;;;;31.00;29.20;;;20.00;74.60;;;;;;5043158;28;20542;-69
2021/09/10 00:48:17;;;;;;;32.80;30.60;;;20.00;74.60;;;;;;5047631;28;20462;-69
2021/09/10 00:50:44;;;;;;;31.67;29.70;;;20.00;74.50;;;;;;5037501;28;20456;-69
2021/09/10 00:53:12;;;;;;;30.97;29.00;;;20.00;74.60;;;;;;5040848;28;20918;-69
2021/09/10 00:55:42;;;;;;;30.67;28.87;;;20.00;74.70;;;;;;5047788;28;20466;-69
2021/09/10 00:58:09;;;;;;;31.70;29.70;;;20.00;74.60;;;;;;5042797;28;20458;-69
2021/09/10 01:00:36;;;;;;;31.30;29.40;;;20.00;74.60;;;;;;5044391;28;20480;-69
2021/09/10 01:03:03;;;;;;;31.00;29.20;;;20.00;74.60;;;;;;5036715;28;20458;-69
2021/09/10 01:05:30;;;;;;;30.23;28.43;;;20.00;74.80;;;;;;5047317;28;20833;-69
2021/09/10 01:07:58;;;;;;;30.90;29.10;;;19.90;75.10;;;;;;5044904;28;20460;-69
2021/09/10 01:10:27;;;;;;;30.80;28.90;;;19.90;75.20;;;;;;5040814;28;20493;-69
2021/09/10 01:12:57;;;;;;;31.47;29.50;;;20.00;75.20;;;;;;5047848;28;20462;-69
2021/09/10 01:15:24;;;;;;;31.20;29.40;;;20.00;75.20;;;;;;5043436;28;20459;-69
2021/09/10 01:17:51;;;;;;;30.70;28.70;;;20.00;75.40;;;;;;5045570;28;20465;-69
2021/09/10 01:20:18;;;;;;;32.27;30.17;;;20.00;75.40;;;;;;5039152;28;20483;-69
2021/09/10 01:22:45;;;;;;;32.40;30.20;;;20.00;75.50;;;;;;5040055;28;20550;-69
2021/09/10 01:25:15;;;;;;;30.73;28.93;;;20.00;75.40;;;;;;5046827;28;20815;-69
2021/09/10 01:27:44;;;;;;;31.00;29.10;;;19.90;75.40;;;;;;5044068;28;20825;-69
2021/09/10 01:30:13;;;;;;;31.93;30.07;;;19.90;75.60;;;;;;5037275;28;20482;-69
2021/09/10 01:32:40;;;;;;;31.03;29.20;;;19.90;75.70;;;;;;5044625;28;20451;-69
2021/09/10 01:35:08;;;;;;;31.40;29.50;;;19.90;76.00;;;;;;5049646;28;20459;-69
2021/09/10 01:37:36;;;;;;;30.83;29.03;;;19.90;75.90;;;;;;5042864;28;20451;-69
2021/09/10 01:40:03;;;;;;;31.50;29.57;;;19.80;76.00;;;;;;5046404;28;20483;-69
2021/09/10 01:42:31;;;;;;;30.87;29.03;;;19.80;76.30;;;;;;5041668;28;20458;-69
2021/09/10 01:44:58;;;;;;;32.17;29.97;;;19.70;76.50;;;;;;5044115;28;20459;-69
2021/09/10 01:47:25;;;;;;;31.90;30.00;;;19.70;76.60;;;;;;5039442;28;20455;-69
2021/09/10 01:49:52;;;;;;;32.43;30.23;;;19.60;76.80;;;;;;5046411;28;20485;-69
2021/09/10 01:52:19;;;;;;;32.27;30.07;;;19.60;76.90;;;;;;5040681;28;20450;-69
2021/09/10 01:54:46;;;;;;;31.30;29.50;;;19.60;76.90;;;;;;5047978;28;20475;-69
2021/09/10 01:57:13;;;;;;;31.40;29.60;;;19.60;76.90;;;;;;5034345;28;20447;-69
2021/09/10 01:59:43;;;;;;;30.90;28.80;;;19.60;76.80;;;;;;5052850;28;20488;-69
2021/09/10 02:02:10;;;;;;;31.03;29.10;;;19.70;76.70;;;;;;5032836;28;20587;-69
2021/09/10 02:04:37;;;;;;;31.00;29.00;;;19.70;76.80;;;;;;5054310;28;20465;-69
2021/09/10 02:07:04;;;;;;;32.23;30.10;;;19.60;76.80;;;;;;5049411;28;20534;-69
2021/09/10 02:09:32;;;;;;;31.20;29.30;;;19.60;76.90;;;;;;5046408;28;20566;-69
2021/09/10 02:11:59;;;;;;;31.10;29.10;;;19.60;77.00;;;;;;5039457;28;20516;-69
2021/09/10 02:14:26;;;;;;;32.07;30.17;;;19.60;77.10;;;;;;5047681;28;20466;-69
2021/09/10 02:16:55;;;;;;;31.93;29.90;;;19.70;77.20;;;;;;5049383;28;20582;-69
2021/09/10 02:19:21;;;;;;;30.63;28.80;;;19.60;77.30;;;;;;5054144;28;21236;-69
2021/09/10 02:21:48;;;;;;;32.00;30.10;;;19.60;77.30;;;;;;5044938;28;20484;-69
2021/09/10 02:24:16;;;;;;;32.00;30.10;;;19.60;77.40;;;;;;5044891;28;20549;-69
2021/09/10 02:26:43;;;;;;;31.83;30.03;;;19.60;77.30;;;;;;5046184;28;20825;-69
2021/09/10 02:29:10;;;;;;;31.80;29.70;;;19.60;77.40;;;;;;5050231;28;20476;-69
2021/09/10 02:31:37;;;;;;;32.63;30.53;;;19.60;77.60;;;;;;5043262;28;20546;-69
2021/09/10 02:34:06;;;;;;;32.60;30.60;;;19.60;77.60;;;;;;5052960;28;20530;-69
2021/09/10 02:36:34;;;;;;;31.50;29.70;;;19.60;77.50;;;;;;5044118;28;20550;-70
2021/09/10 02:39:01;;;;;;;34.60;32.50;;;19.60;77.60;;;;;;5045108;28;20481;-69
2021/09/10 02:41:28;;;;;;;31.40;29.60;;;19.60;77.50;;;;;;5044366;28;20470;-69
2021/09/10 02:43:55;;;;;;;32.20;30.20;;;19.60;77.50;;;;;;5046802;28;20461;-69
2021/09/10 02:46:22;;;;;;;31.87;29.97;;;19.70;77.60;;;;;;5045599;28;20551;-69
2021/09/10 02:48:48;;;;;;;32.00;30.10;;;19.70;77.60;;;;;;5041869;28;20553;-69
2021/09/10 02:51:17;;;;;;;31.33;29.33;;;19.70;77.60;;;;;;5044303;28;20463;-69
2021/09/10 02:53:44;;;;;;;33.50;31.40;;;19.70;77.70;;;;;;5041186;28;20973;-69
2021/09/10 02:56:11;;;;;;;32.67;30.77;;;19.70;77.70;;;;;;5047079;28;20847;-69
2021/09/10 02:58:38;;;;;;;32.10;30.20;;;19.70;77.70;;;;;;5047891;28;21234;-69
2021/09/10 03:01:05;;;;;;;33.63;31.30;;;19.70;77.70;;;;;;5047155;28;20516;-70
2021/09/10 03:03:32;;;;;;;33.00;31.00;;;19.70;77.80;;;;;;5046572;28;20466;-69
2021/09/10 03:05:59;;;;;;;32.00;29.80;;;19.70;78.00;;;;;;5047336;28;20597;-69
2021/09/10 03:08:27;;;;;;;35.97;33.83;;;19.70;78.00;;;;;;5044831;28;20498;-69
2021/09/10 03:10:54;;;;;;;34.87;32.37;;;19.70;78.10;;;;;;5044914;28;20459;-69
2021/09/10 03:13:21;;;;;;;32.67;30.77;;;19.70;78.10;;;;;;5042310;28;20470;-69
2021/09/10 03:15:48;;;;;;;32.10;30.07;;;19.70;78.20;;;;;;5049252;28;20451;-69
2021/09/10 03:18:15;;;;;;;33.93;31.80;;;19.70;78.40;;;;;;5043534;28;20475;-70
2021/09/10 03:20:43;;;;;;;32.17;30.20;;;19.70;78.30;;;;;;5052786;28;20475;-70
2021/09/10 03:23:10;;;;;;;32.83;30.73;;;19.70;78.40;;;;;;5048556;28;20463;-70
2021/09/10 03:25:38;;;;;;;34.53;32.13;;;19.70;78.50;;;;;;5051871;28;20858;-70
2021/09/10 03:28:05;;;;;;;34.43;32.30;;;19.70;78.70;;;;;;5049853;28;20467;-69
2021/09/10 03:30:32;;;;;;;35.17;32.97;;;19.60;78.70;;;;;;5048382;28;20542;-70
2021/09/10 03:32:59;;;;;;;33.47;31.47;;;19.60;78.90;;;;;;5046135;28;20459;-70
2021/09/10 03:35:26;;;;;;;33.70;31.60;;;19.60;79.00;;;;;;5047838;28;20451;-69
2021/09/10 03:37:53;;;;;;;33.40;30.97;;;19.60;79.10;;;;;;5044653;28;20459;-70
2021/09/10 03:40:20;;;;;;;35.40;33.20;;;19.60;79.10;;;;;;5045107;28;20514;-70
2021/09/10 03:42:48;;;;;;;37.70;35.30;;;19.60;79.20;;;;;;5051897;28;20460;-70
2021/09/10 03:45:15;;;;;;;36.60;34.40;;;19.60;79.30;;;;;;5048122;28;20468;-69
2021/09/10 03:47:42;;;;;;;31.70;29.83;;;19.60;79.30;;;;;;5049880;28;20550;-70
2021/09/10 03:50:10;;;;;;;32.90;30.60;;;19.60;79.20;;;;;;5052405;28;21097;-70
2021/09/10 03:52:37;;;;;;;33.07;30.90;;;19.60;79.30;;;;;;5044260;28;20459;-70
2021/09/10 03:55:04;;;;;;;33.93;31.90;;;19.60;79.30;;;;;;5049012;28;20602;-70
2021/09/10 03:57:31;;;;;;;35.13;33.00;;;19.50;79.50;;;;;;5041577;28;20461;-70
2021/09/10 03:59:59;;;;;;;35.90;33.60;;;19.50;79.50;;;;;;5049633;28;20471;-70
2021/09/10 04:02:26;;;;;;;34.57;32.23;;;19.50;79.60;;;;;;5042821;28;20454;-69
2021/09/10 04:04:53;;;;;;;35.03;32.50;;;19.50;79.70;;;;;;5049222;28;20455;-70
2021/09/10 04:07:19;;;;;;;34.63;32.47;;;19.50;79.70;;;;;;5042779;28;20459;-70
2021/09/10 04:09:46;;;;;;;34.40;32.23;;;19.50;79.60;;;;;;5046249;28;20470;-70
2021/09/10 04:12:13;;;;;;;36.10;33.70;;;19.50;79.70;;;;;;5046066;28;20481;-70
2021/09/10 04:14:40;;;;;;;35.37;33.10;;;19.50;79.50;;;;;;5053800;28;20450;-70
2021/09/10 04:17:08;;;;;;;35.57;33.27;;;19.50;79.50;;;;;;5044887;28;20470;-71
2021/09/10 04:19:35;;;;;;;37.30;34.77;;;19.50;79.50;;;;;;5052241;28;20477;-69
2021/09/10 04:22:02;;;;;;;33.80;31.60;;;19.50;79.60;;;;;;5044702;28;21189;-70
2021/09/10 04:24:29;;;;;;;35.17;32.87;;;19.40;79.80;;;;;;5050340;28;20461;-70
2021/09/10 04:26:56;;;;;;;34.17;31.93;;;19.40;80.20;;;;;;5045140;28;20570;-70
2021/09/10 04:29:23;;;;;;;35.60;33.00;;;19.30;80.10;;;;;;5054296;28;20491;-69
2021/09/10 04:31:50;;;;;;;36.50;33.90;;;19.30;80.30;;;;;;5043372;28;20790;-69
2021/09/10 04:34:18;;;;;;;34.57;32.37;;;19.40;80.10;;;;;;5048297;28;21263;-70
2021/09/10 04:36:45;;;;;;;33.33;31.10;;;19.30;80.00;;;;;;5041769;28;20849;-69
2021/09/10 04:39:12;;;;;;;34.27;32.07;;;19.30;80.10;;;;;;5053758;28;20478;-70
2021/09/10 04:41:39;;;;;;;34.87;32.70;;;19.30;80.40;;;;;;5043687;28;21032;-69
2021/09/10 04:44:06;;;;;;;35.43;33.33;;;19.20;80.40;;;;;;5045003;28;21079;-70
2021/09/10 04:46:33;;;;;;;35.30;33.10;;;19.20;80.40;;;;;;5045767;28;20455;-70
2021/09/10 04:48:59;;;;;;;36.90;34.30;;;19.20;80.60;;;;;;5045336;28;20475;-70
2021/09/10 04:51:29;;;;;;;35.07;32.87;;;19.10;80.90;;;;;;5039071;28;20460;-69
2021/09/10 04:53:56;;;;;;;35.40;33.20;;;19.10;80.80;;;;;;5045461;28;20443;-69
2021/09/10 04:56:24;;;;;;;35.67;33.23;;;19.10;80.70;;;;;;5044037;28;20463;-70
2021/09/10 04:58:50;;;;;;;35.43;33.07;;;19.10;81.00;;;;;;5043756;28;20483;-69
2021/09/10 05:01:17;;;;;;;37.73;35.33;;;19.10;80.90;;;;;;5047044;28;20478;-69
2021/09/10 05:03:44;;;;;;;35.47;33.10;;;19.10;81.00;;;;;;5049404;28;20451;-69
2021/09/10 05:06:11;;;;;;;35.00;32.70;;;19.10;81.00;;;;;;5043247;28;20463;-69
2021/09/10 05:08:39;;;;;;;35.90;33.30;;;19.00;81.30;;;;;;5042825;28;20691;-69
2021/09/10 05:11:06;;;;;;;37.57;34.87;;;19.00;81.30;;;;;;5038878;28;20456;-70
2021/09/10 05:13:33;;;;;;;35.43;33.03;;;19.10;81.20;;;;;;5041468;28;20542;-70
2021/09/10 05:16:00;;;;;;;36.00;33.80;;;19.10;81.20;;;;;;5047979;28;20498;-70
2021/09/10 05:18:27;;;;;;;35.30;33.00;;;19.10;81.30;;;;;;5046098;28;20477;-69
2021/09/10 05:20:54;;;;;;;37.17;34.87;;;19.10;81.30;;;;;;5044032;28;20851;-70
2021/09/10 05:23:21;;;;;;;36.47;34.17;;;19.00;81.30;;;;;;5037612;28;20513;-70
2021/09/10 05:25:49;;;;;;;35.07;32.53;;;19.00;81.30;;;;;;5048544;28;21056;-70
2021/09/10 05:28:16;;;;;;;34.60;32.30;;;19.10;81.20;;;;;;5042002;28;20824;-69
2021/09/10 05:30:42;;;;;;;36.43;34.03;;;19.20;80.90;;;;;;5045568;28;20465;-69
2021/09/10 05:33:09;;;;;;;35.60;33.33;;;19.20;80.70;;;;;;5036252;28;20457;-70
2021/09/10 05:35:36;;;;;;;36.87;34.57;;;19.20;80.60;;;;;;5042637;28;20461;-70
2021/09/10 05:38:03;;;;;;;34.73;32.67;;;19.20;80.70;;;;;;5049816;28;20464;-69
2021/09/10 05:40:30;;;;;;;36.23;33.67;;;19.20;80.60;;;;;;5044551;28;20551;-69
2021/09/10 05:43:02;;;;;;;38.10;35.57;;;19.20;80.60;;;;;;5048931;28;20538;-70
2021/09/10 05:45:29;;;;;;;35.97;33.60;;;19.20;80.60;;;;;;5048024;28;20502;-70
2021/09/10 05:47:55;;;;;;;38.77;36.10;;;19.20;80.60;;;;;;5044502;28;21219;-70
2021/09/10 05:50:22;;;;;;;39.60;36.80;;;19.20;80.80;;;;;;5049382;28;20480;-71
2021/09/10 05:52:49;;;;;;;38.37;35.50;;;19.20;80.90;;;;;;5041430;28;20517;-71
2021/09/10 05:55:16;;;;;;;38.87;36.50;;;19.20;80.70;;;;;;5051792;28;20463;-74
2021/09/10 05:57:43;;;;;;;34.63;32.33;;;19.30;80.30;;;;;;5046955;28;20462;-71
2021/09/10 06:00:13;;;;;;;40.77;37.97;;;19.40;79.90;;;;;;5044689;28;20480;-72
2021/09/10 06:02:40;;;;;;;37.43;35.13;;;19.50;79.50;;;;;;5044299;28;20474;-72
2021/09/10 06:05:07;;;;;;;35.50;33.10;;;19.50;79.50;;;;;;5047736;28;20467;-71
2021/09/10 06:07:34;;;;;;;37.57;35.23;;;19.60;79.10;;;;;;5043065;28;20715;-71
2021/09/10 06:10:01;;;;;;;35.37;33.17;;;19.70;79.00;;;;;;5050869;28;20571;-70
2021/09/10 06:12:28;;;;;;;37.10;34.90;;;19.80;78.70;;;;;;5044434;28;20459;-70
2021/09/10 06:14:55;;;;;;;36.77;34.47;;;19.80;78.70;;;;;;5050220;28;20461;-71
2021/09/10 06:17:24;;;;;;;37.40;35.20;;;19.80;78.50;;;;;;5041533;28;20483;-71
2021/09/10 06:19:50;;;;;;;36.10;33.30;;;20.00;78.20;;;;;;5046341;28;20471;-71
2021/09/10 06:22:17;;;;;;;35.80;33.50;;;20.00;78.00;;;;;;5049610;28;20570;-71
2021/09/10 06:24:44;;;;;;;37.13;34.80;;;20.00;78.10;;;;;;5054806;28;20458;-71
2021/09/10 06:27:11;;;;;;;36.70;34.17;;;20.10;77.90;;;;;;5042349;28;20454;-71
2021/09/10 06:29:38;;;;;;;37.80;35.20;;;20.10;77.70;;;;;;5046296;28;20476;-71
2021/09/10 06:32:05;;;;;;;37.67;34.97;;;20.30;77.30;;;;;;5043743;28;20447;-71
2021/09/10 06:34:34;;;;;;;36.17;33.50;;;20.50;76.50;;;;;;5043515;28;20459;-71
2021/09/10 06:37:01;;;;;;;37.60;35.20;;;20.60;75.70;;;;;;5044939;28;21033;-71
2021/09/10 06:39:28;;;;;;;37.77;35.47;;;20.80;75.10;;;;;;5046341;28;20837;-71
2021/09/10 06:41:56;;;;;;;36.17;33.73;;;21.00;74.30;;;;;;5048731;28;21007;-71
2021/09/10 06:44:23;;;;;;;35.37;33.07;;;21.10;73.90;;;;;;5043508;28;20463;-71
2021/09/10 06:46:50;;;;;;;38.23;35.50;;;21.20;73.30;;;;;;5043033;28;20470;-71
2021/09/10 06:49:17;;;;;;;37.87;35.30;;;21.30;72.70;;;;;;5043526;28;20476;-71
2021/09/10 06:51:45;;;;;;;38.20;35.70;;;21.50;72.30;;;;;;5043241;28;21047;-70
2021/09/10 06:54:12;;;;;;;37.37;34.97;;;21.60;72.00;;;;;;5044096;28;20973;-70
2021/09/10 06:56:39;;;;;;;37.40;34.80;;;21.70;71.80;;;;;;5043431;28;20474;-70
2021/09/10 06:59:06;;;;;;;36.97;34.23;;;21.90;71.30;;;;;;5040755;28;20573;-71
2021/09/10 07:01:35;;;;;;;37.70;35.00;;;21.90;71.00;;;;;;5047305;28;20565;-72
2021/09/10 07:04:02;;;;;;;36.93;34.73;;;22.00;70.70;;;;;;5046017;28;20455;-71
2021/09/10 07:06:30;;;;;;;36.87;34.57;;;22.20;70.20;;;;;;5042748;28;20534;-70
2021/09/10 07:08:58;;;;;;;38.73;36.23;;;22.30;69.80;;;;;;5045700;28;20486;-69
2021/09/10 07:11:25;;;;;;;38.80;35.90;;;22.40;69.50;;;;;;5051134;28;20449;-69
2021/09/10 07:13:52;;;;;;;39.83;37.50;;;22.60;69.20;;;;;;5048127;28;20470;-69
2021/09/10 07:16:19;;;;;;;36.80;34.37;;;22.70;68.90;;;;;;5042450;28;20451;-69
2021/09/10 07:18:46;;;;;;;36.57;34.27;;;22.90;68.40;;;;;;5041158;28;20466;-69
2021/09/10 07:21:13;;;;;;;36.17;33.87;;;22.90;68.10;;;;;;5040749;28;20460;-71
2021/09/10 07:23:40;;;;;;;36.03;33.70;;;23.00;67.30;;;;;;5047082;28;20458;-71
2021/09/10 07:26:11;;;;;;;38.07;35.30;;;23.10;66.50;;;;;;5046589;28;20546;-70
2021/09/10 07:28:38;;;;;;;36.20;33.87;;;23.20;66.20;;;;;;5049806;28;21000;-71
2021/09/10 07:31:07;;;;;;;36.47;34.27;;;23.30;66.30;;;;;;5045658;28;20474;-70
2021/09/10 07:33:36;;;;;;;37.90;35.50;;;23.40;65.90;;;;;;5042074;28;20463;-70
2021/09/10 07:36:04;;;;;;;38.50;35.83;;;23.50;65.50;;;;;;5046497;28;20471;-72
2021/09/10 07:38:32;;;;;;;36.40;34.13;;;23.60;65.60;;;;;;5055843;28;21358;-73
2021/09/10 07:40:59;;;;;;;35.77;33.50;;;23.70;65.40;;;;;;5048931;28;21086;-74
2021/09/10 07:43:27;;;;;;;38.00;35.80;;;23.70;65.60;;;;;;5047375;28;20476;-72
2021/09/10 07:45:54;;;;;;;38.00;35.70;;;23.90;65.30;;;;;;5043187;28;20474;-72
2021/09/10 07:48:21;;;;;;;36.73;34.50;;;24.00;65.20;;;;;;5048770;28;20537;-72
2021/09/10 07:50:48;;;;;;;38.23;35.80;;;24.10;64.80;;;;;;5042564;28;20451;-72
2021/09/10 07:53:14;;;;;;;39.90;37.20;;;24.30;64.50;;;;;;5036217;28;20454;-72
2021/09/10 07:55:41;;;;;;;38.00;35.70;;;24.40;64.40;;;;;;5048549;28;20478;-71
2021/09/10 07:58:08;;;;;;;38.90;36.37;;;24.60;63.70;;;;;;5044434;28;20945;-73
2021/09/10 08:00:37;;;;;;;40.33;37.23;;;24.70;63.50;;;;;;5045729;28;20483;-71
2021/09/10 08:03:06;;;;;;;39.97;37.43;;;24.90;63.20;;;;;;5045714;28;20479;-72
2021/09/10 08:05:33;;;;;;;36.63;34.40;;;25.10;62.00;;;;;;5045750;28;20539;-70
2021/09/10 08:08:00;;;;;;;35.77;33.57;;;25.20;61.60;;;;;;5036315;28;20463;-71
2021/09/10 08:10:29;;;;;;;39.53;36.70;;;25.10;61.40;;;;;;5039345;28;20467;-71
2021/09/10 08:12:56;;;;;;;38.20;35.90;;;24.80;61.90;;;;;;5040297;28;20452;-71
2021/09/10 08:15:23;;;;;;;37.50;35.00;;;24.70;61.90;;;;;;5040264;28;20845;-71
2021/09/10 08:17:51;;;;;;;37.00;34.70;;;24.60;62.00;;;;;;5038552;28;20983;-71
2021/09/10 08:20:18;;;;;;;37.00;34.80;;;24.60;62.40;;;;;;5043599;28;20913;-71
2021/09/10 08:22:46;;;;;;;37.50;35.30;;;24.50;62.50;;;;;;5041039;28;21192;-71
2021/09/10 08:25:13;;;;;;;35.57;33.57;;;24.70;62.10;;;;;;5042105;28;20546;-71
2021/09/10 08:27:41;;;;;;;37.07;34.87;;;24.80;61.80;;;;;;5046637;28;20469;-74
2021/09/10 08:30:09;;;;;;;38.27;35.77;;;25.00;61.50;;;;;;5044253;28;20474;-73
2021/09/10 08:32:36;;;;;;;39.07;36.80;;;25.20;61.00;;;;;;5039250;28;20447;-76
2021/09/10 08:35:06;;;;;;;37.57;35.47;;;25.30;60.80;;;;;;5038392;28;20459;-78
2021/09/10 08:37:33;;;;;;;38.13;35.70;;;25.30;60.40;;;;;;5041710;28;20569;-71
2021/09/10 08:40:01;;;;;;;37.97;35.60;;;25.30;60.60;;;;;;5043905;28;20481;-71
2021/09/10 08:42:28;;;;;;;38.93;36.63;;;25.20;60.00;;;;;;5037567;28;20506;-71
2021/09/10 08:44:56;;;;;;;35.27;33.20;;;25.10;60.60;;;;;;5040197;28;20467;-71
2021/09/10 08:47:24;;;;;;;37.40;34.80;;;25.00;61.20;;;;;;5033831;28;20452;-71
2021/09/10 08:49:53;;;;;;;37.13;35.00;;;24.90;61.40;;;;;;5038575;28;20844;-71
2021/09/10 08:52:23;;;;;;;35.80;33.70;;;25.00;61.20;;;;;;5042754;28;20450;-71
2021/09/10 08:54:50;;;;;;;39.37;36.87;;;25.00;61.10;;;;;;5047046;28;20470;-71
2021/09/10 08:57:17;;;;;;;38.37;36.07;;;25.00;61.50;;;;;;5040416;28;20474;-72
2021/09/10 08:59:45;;;;;;;39.13;36.73;;;25.00;61.30;;;;;;5043607;28;20910;-71
2021/09/10 09:02:14;;;;;;;38.67;36.07;;;25.00;60.80;;;;;;5041633;28;20954;-71
2021/09/10 09:04:41;;;;;;;37.43;35.03;;;25.20;60.30;;;;;;5039579;28;20913;-71
2021/09/10 09:07:10;;;;;;;38.10;35.47;;;25.30;60.50;;;;;;5042795;28;20454;-71
2021/09/10 09:09:42;;;;;;;38.73;36.23;;;25.40;60.60;;;;;;5035086;28;20487;-72
2021/09/10 09:12:17;;;;;;;38.53;36.33;;;25.50;60.20;;;;;;5039813;28;20974;-72
2021/09/10 09:14:46;;;;;;;42.47;39.97;;;25.60;60.00;;;;;;5044974;28;20966;-71
2021/09/10 09:17:24;;;;;;;40.10;37.50;;;25.80;59.90;;;;;;5044031;28;20458;-71
2021/09/10 09:20:11;;;;;;;36.50;34.20;;;25.90;59.80;;;;;;5047166;28;20593;-71
2021/09/10 09:22:53;;;;;;;39.30;36.90;;;25.80;58.90;;;;;;5045493;28;20858;-72
2021/09/10 09:25:24;;;;;;;41.10;38.50;;;25.40;59.10;;;;;;5048871;28;20462;-71
2021/09/10 09:27:51;;;;;;;39.07;36.57;;;25.40;60.20;;;;;;5040692;28;20455;-71
2021/09/10 09:30:36;;;;;;;38.07;35.67;;;25.50;59.70;;;;;;5038972;28;20578;-71
2021/09/10 09:33:03;;;;;;;38.77;36.13;;;25.30;59.60;;;;;;5044863;28;20462;-71
2021/09/10 09:35:31;;;;;;;45.80;38.50;;;25.20;60.10;;;;;;5041825;28;20550;-71
2021/09/10 09:37:59;;;;;;;39.37;36.77;;;25.40;60.20;;;;;;5034847;28;20460;-71
2021/09/10 09:40:34;;;;;;;44.57;40.93;;;25.80;59.30;;;;;;5031469;28;20479;-71
2021/09/10 09:43:17;;;;;;;39.30;37.00;;;25.90;59.20;;;;;;5041643;28;20467;-71
2021/09/10 09:45:47;;;;;;;42.47;39.30;;;26.20;58.70;;;;;;5038164;28;21047;-71
2021/09/10 09:48:15;;;;;;;41.90;39.37;;;26.30;58.70;;;;;;5041260;28;20450;-71
2021/09/10 09:50:43;;;;;;;42.47;39.43;;;26.40;58.70;;;;;;5040873;28;20521;-71
2021/09/10 09:53:12;;;;;;;39.87;37.43;;;26.50;58.90;;;;;;5045257;28;20577;-71
2021/09/10 09:55:41;;;;;;;41.40;39.00;;;26.50;58.50;;;;;;5042484;28;20463;-71
2021/09/10 09:58:08;;;;;;;38.87;36.47;;;26.60;58.60;;;;;;5033586;28;20492;-71
2021/09/10 10:00:37;;;;;;;38.53;36.03;;;26.70;58.40;;;;;;5044379;28;20545;-71
2021/09/10 10:03:05;;;;;;;42.80;40.20;;;26.90;57.90;;;;;;5047680;28;20565;-71
2021/09/10 10:05:35;;;;;;;38.13;35.73;;;27.00;57.30;;;;;;5042143;28;20477;-71
2021/09/10 10:08:06;;;;;;;41.20;38.90;;;26.80;57.00;;;;;;5036412;28;20827;-71
2021/09/10 10:10:38;;;;;;;39.83;37.20;;;26.50;58.30;;;;;;5039633;28;21198;-71
2021/09/10 10:13:07;;;;;;;40.53;38.00;;;26.50;58.10;;;;;;5035932;28;20471;-71
2021/09/10 10:15:42;;;;;;;40.33;37.43;;;26.50;58.40;;;;;;5049592;28;20844;-71
2021/09/10 10:18:09;;;;;;;38.40;35.87;;;26.60;58.40;;;;;;5038399;28;20511;-71
2021/09/10 10:20:52;;;;;;;38.33;35.87;;;26.80;57.60;;;;;;5048117;28;20457;-71
2021/09/10 10:24:05;;;;;;;38.63;36.10;;;26.80;56.80;;;;;;5047732;28;20489;-71
2021/09/10 10:26:40;;;;;;;39.13;36.63;;;26.80;57.10;;;;;;5047855;28;20980;-71
2021/09/10 10:29:15;;;;;;;38.67;36.27;;;26.90;56.60;;;;;;5043559;28;20477;-71
2021/09/10 10:32:05;;;;;;;37.97;35.67;;;26.90;56.80;;;;;;5046813;28;20459;-72
2021/09/10 10:34:34;;;;;;;38.03;34.93;;;27.10;55.90;;;;;;5047207;28;20499;-72
2021/09/10 10:37:01;;;;;;;37.27;35.07;;;27.10;56.10;;;;;;5050698;28;20461;-71
2021/09/10 10:39:29;;;;;;;38.87;36.13;;;26.80;56.40;;;;;;5047248;28;20476;-71
2021/09/10 10:41:58;;;;;;;37.80;35.40;;;26.70;56.40;;;;;;5042409;28;20467;-70
2021/09/10 10:44:49;;;;;;;36.77;34.40;;;26.80;56.70;;;;;;5045155;28;20984;-71
2021/09/10 10:47:19;;;;;;;36.80;34.50;;;27.00;56.40;;;;;;5039182;28;20486;-71
2021/09/10 10:49:48;;;;;;;38.90;36.50;;;27.20;56.10;;;;;;5042708;28;20471;-73
2021/09/10 10:52:36;;;;;;;39.37;36.77;;;27.00;56.40;;;;;;5041946;28;20543;-73
2021/09/10 10:55:21;;;;;;;37.80;35.50;;;27.00;56.80;;;;;;5045689;28;20956;-74
2021/09/10 10:57:49;;;;;;;37.80;35.37;;;27.00;55.60;;;;;;5045488;28;20550;-74
2021/09/10 11:00:47;;;;;;;39.33;36.83;;;26.70;55.80;;;;;;5048619;28;20474;-71
2021/09/10 11:03:36;;;;;;;39.30;36.80;;;26.30;57.00;;;;;;5045947;28;20479;-74
2021/09/10 11:06:29;;;;;;;39.87;37.20;;;26.40;57.30;;;;;;5048847;28;20443;-72
2021/09/10 11:08:56;;;;;;;37.63;35.17;;;26.60;57.60;;;;;;5044281;28;20510;-72
2021/09/10 11:11:28;;;;;;;38.93;36.37;;;26.80;57.00;;;;;;5055261;28;20458;-72
2021/09/10 11:13:55;;;;;;;38.00;35.60;;;27.00;57.00;;;;;;5049880;28;20554;-72
2021/09/10 11:16:33;;;;;;;36.77;34.37;;;27.30;55.70;;;;;;5046511;28;20465;-72
2021/09/10 11:19:00;;;;;;;37.23;34.90;;;27.40;55.70;;;;;;5047343;28;20473;-72
2021/09/10 11:21:29;;;;;;;38.67;36.37;;;27.50;55.10;;;;;;5044080;28;20451;-71
2021/09/10 11:23:56;;;;;;;37.00;34.60;;;27.30;54.90;;;;;;5047278;28;20475;-71
2021/09/10 11:26:34;;;;;;;37.70;35.20;;;27.10;55.10;;;;;;5047088;28;20960;-72
2021/09/10 11:29:12;;;;;;;37.90;35.40;;;27.00;55.40;;;;;;5049487;28;20478;-72
2021/09/10 11:31:43;;;;;;;37.57;35.17;;;26.70;56.40;;;;;;5037666;28;20971;-72
2021/09/10 12:01:23;;;;;;;39.03;36.50;;;25.90;59.20;;;;;;5093530;27;20726;-73
2021/09/10 12:03:56;;;;;;;39.30;36.80;;;26.10;58.90;;;;;;5083582;28;20533;-73
2021/09/10 12:06:25;;;;;;;40.20;37.60;;;26.30;58.40;;;;;;5080047;28;20998;-73
2021/09/10 12:09:17;;;;;;;38.73;36.13;;;26.40;57.80;;;;;;5083841;28;20523;-71
2021/09/10 12:12:16;;;;;;;39.40;36.90;;;26.20;58.40;;;;;;5081728;28;20449;-70
2021/09/10 12:14:45;;;;;;;38.63;36.20;;;26.00;59.10;;;;;;5048822;28;20544;-70
2021/09/10 12:17:19;;;;;;;37.97;35.47;;;26.10;58.40;;;;;;5082070;28;20457;-70
2021/09/10 12:20:08;;;;;;;38.93;36.60;;;26.10;58.90;;;;;;5080801;28;20984;-69
2021/09/10 12:22:41;;;;;;;39.27;36.57;;;26.20;59.00;;;;;;5080637;28;20902;-70
2021/09/10 12:25:29;;;;;;;39.67;36.93;;;26.30;58.30;;;;;;5083314;28;20458;-71
2021/09/10 12:27:58;;;;;;;41.30;38.53;;;26.50;57.80;;;;;;5082373;28;20453;-72
2021/09/10 12:30:27;;;;;;;38.63;36.23;;;26.50;57.90;;;;;;5073139;28;20462;-73
2021/09/10 12:32:56;;;;;;;38.83;36.33;;;26.80;57.50;;;;;;5081923;28;20461;-72
2021/09/10 12:35:23;;;;;;;40.43;37.73;;;26.80;57.90;;;;;;5082252;28;20457;-71
2021/09/10 12:37:55;;;;;;;39.30;36.83;;;27.10;57.20;;;;;;5082065;28;20465;-71
2021/09/10 12:40:22;;;;;;;38.37;35.97;;;27.20;57.20;;;;;;5080967;28;20898;-71
2021/09/10 12:42:49;;;;;;;39.00;36.47;;;27.40;56.90;;;;;;5075423;28;20890;-68
2021/09/10 12:45:17;;;;;;;38.57;36.00;;;27.40;56.50;;;;;;5081535;28;20453;-69
2021/09/10 12:47:47;;;;;;;39.77;37.23;;;27.50;57.10;;;;;;5085777;27;21361;-70
2021/09/10 12:50:19;;;;;;;37.60;35.10;;;27.60;56.60;;;;;;5082215;28;20477;-69
2021/09/10 12:52:46;;;;;;;39.23;36.60;;;27.70;56.70;;;;;;5087547;28;20460;-69
2021/09/10 12:55:14;;;;;;;39.20;36.70;;;27.80;56.10;;;;;;5082833;28;20933;-68
2021/09/10 12:57:41;;;;;;;38.57;36.07;;;27.80;55.40;;;;;;5084710;28;20540;-67
2021/09/10 13:00:10;;;;;;;37.50;35.20;;;27.50;56.10;;;;;;5079083;28;20497;-68
2021/09/10 13:02:37;;;;;;;40.10;37.40;;;27.40;56.40;;;;;;5077247;28;20538;-68
2021/09/10 13:05:05;;;;;;;37.50;35.10;;;27.50;56.60;;;;;;5079178;28;20812;-68